createdAt,value
2022-09-27T00:02:51.481Z,100.00
2022-09-27T00:06:53.771Z,100.00
2022-09-27T00:11:00.786Z,100.00
2022-09-27T00:15:04.000Z,100.00
2022-09-27T00:19:14.020Z,100.00
2022-09-27T00:23:16.118Z,100.00
2022-09-27T00:27:19.045Z,100.00
2022-09-27T00:31:24.049Z,100.00
2022-09-27T00:35:26.152Z,100.00
2022-09-27T00:39:28.223Z,100.00
2022-09-27T00:43:52.736Z,100.00
2022-09-27T00:47:59.138Z,100.00
2022-09-27T00:52:05.232Z,100.00
2022-09-27T00:56:12.219Z,100.00
2022-09-27T01:00:15.471Z,100.00
2022-09-27T01:04:23.933Z,100.00
2022-09-27T01:08:25.945Z,100.00
2022-09-27T01:12:36.998Z,100.00
2022-09-27T01:17:12.613Z,100.00
2022-09-27T01:21:45.007Z,100.00
2022-09-27T01:25:55.951Z,100.00
2022-09-27T01:30:19.032Z,100.00
2022-09-27T01:34:51.846Z,100.00
2022-09-27T01:39:08.761Z,100.00
2022-09-27T01:43:45.528Z,100.00
2022-09-27T01:47:57.057Z,100.00
2022-09-27T01:52:31.798Z,100.00
2022-09-27T01:56:47.142Z,100.00
2022-09-27T02:00:55.654Z,100.00
2022-09-27T02:05:03.221Z,100.00
2022-09-27T02:09:12.067Z,100.00
2022-09-27T02:13:40.284Z,100.00
2022-09-27T02:18:15.745Z,100.00
2022-09-27T02:22:32.356Z,100.00
2022-09-27T02:26:43.738Z,100.00
2022-09-27T02:30:45.860Z,100.00
2022-09-27T02:34:57.599Z,100.00
2022-09-27T02:39:01.122Z,100.00
2022-09-27T02:43:05.929Z,100.00
2022-09-27T02:47:19.779Z,100.00
2022-09-27T02:51:56.140Z,100.00
2022-09-27T02:56:27.736Z,100.00
2022-09-27T03:00:59.680Z,100.00
2022-09-27T03:05:31.019Z,100.00
2022-09-27T03:09:52.100Z,100.00
2022-09-27T03:14:08.510Z,100.00
2022-09-27T03:18:16.030Z,100.00
2022-09-27T03:22:41.006Z,100.00
2022-09-27T03:26:43.209Z,100.00
2022-09-27T03:30:46.322Z,100.00
2022-09-27T03:35:07.684Z,100.00
2022-09-27T03:39:10.232Z,100.00
2022-09-27T03:43:12.296Z,100.00
2022-09-27T03:47:14.357Z,100.00
2022-09-27T03:51:16.477Z,100.00
2022-09-27T03:55:18.773Z,100.00
2022-09-27T03:59:20.856Z,100.00
2022-09-27T04:03:42.786Z,100.00
2022-09-27T04:08:00.760Z,100.00
2022-09-27T04:12:05.136Z,100.00
2022-09-27T04:16:08.408Z,100.00
2022-09-27T04:20:30.724Z,100.00
2022-09-27T04:24:33.875Z,100.00
2022-09-27T04:29:00.297Z,100.00
2022-09-27T04:33:02.337Z,100.00
2022-09-27T04:37:22.894Z,100.00
2022-09-27T04:41:29.190Z,100.00
2022-09-27T04:45:31.679Z,100.00
2022-09-27T04:49:33.741Z,100.00
2022-09-27T04:53:36.233Z,100.00
2022-09-27T04:57:38.289Z,100.00
2022-09-27T05:01:41.370Z,100.00
2022-09-27T05:05:55.589Z,100.00
2022-09-27T05:09:57.647Z,100.00
2022-09-27T05:14:00.022Z,100.00
2022-09-27T05:18:03.187Z,100.00
2022-09-27T05:22:25.241Z,100.00
2022-09-27T05:26:27.583Z,100.00
2022-09-27T05:30:29.741Z,100.00
2022-09-27T05:34:41.642Z,100.00
2022-09-27T05:38:44.096Z,100.00
2022-09-27T05:42:48.078Z,100.00
2022-09-27T05:46:50.102Z,100.00
2022-09-27T05:50:52.858Z,100.00
2022-09-27T05:54:54.859Z,100.00
2022-09-27T05:58:57.626Z,100.00
2022-09-27T06:03:06.324Z,100.00
2022-09-27T06:07:30.919Z,100.00
2022-09-27T06:11:34.871Z,100.00
2022-09-27T06:15:39.216Z,100.00
2022-09-27T06:19:41.506Z,100.00
2022-09-27T06:23:43.539Z,100.00
2022-09-27T06:27:51.211Z,100.00
2022-09-27T06:32:03.201Z,100.00
2022-09-27T06:36:37.353Z,100.00
2022-09-27T06:40:39.884Z,100.00
2022-09-27T06:45:06.411Z,100.00
2022-09-27T06:49:27.135Z,100.00
2022-09-27T06:53:30.056Z,100.00
2022-09-27T06:57:50.957Z,100.00
2022-09-27T07:01:53.605Z,100.00
2022-09-27T07:06:22.365Z,100.00
2022-09-27T07:10:34.026Z,100.00
2022-09-27T07:14:36.073Z,100.00
2022-09-27T07:18:40.932Z,100.00
2022-09-27T07:22:45.089Z,100.00
2022-09-27T07:26:48.998Z,100.00
2022-09-27T07:30:56.859Z,99.46
2022-09-27T07:34:58.986Z,99.67
2022-09-27T07:39:01.013Z,100.00
2022-09-27T07:43:03.910Z,99.37
2022-09-27T07:47:11.011Z,100.00
2022-09-27T07:51:42.317Z,100.00
2022-09-27T07:56:04.684Z,97.57
2022-09-27T08:00:11.485Z,96.80
2022-09-27T08:04:15.328Z,96.69
2022-09-27T08:08:17.697Z,95.82
2022-09-27T08:12:22.370Z,95.01
2022-09-27T08:16:24.723Z,91.90
2022-09-27T08:20:45.534Z,92.38
2022-09-27T08:25:14.248Z,91.79
2022-09-27T08:29:21.402Z,91.99
2022-09-27T08:33:32.310Z,90.48
2022-09-27T08:37:35.276Z,88.22
2022-09-27T08:41:44.571Z,88.19
2022-09-27T08:46:19.540Z,87.89
2022-09-27T08:50:28.057Z,86.86
2022-09-27T08:54:32.566Z,86.61
2022-09-27T08:58:39.296Z,85.39
2022-09-27T09:02:48.257Z,86.24
2022-09-27T09:07:09.687Z,85.27
2022-09-27T09:12:03.089Z,83.37
2022-09-27T09:16:28.617Z,79.02
2022-09-27T09:21:04.480Z,79.60
2022-09-27T09:25:17.692Z,77.17
2022-09-27T09:29:38.681Z,76.65
2022-09-27T09:34:10.270Z,74.83
2022-09-27T09:38:29.441Z,75.62
2022-09-27T09:42:35.737Z,75.20
2022-09-27T09:46:45.733Z,75.92
2022-09-27T09:50:51.991Z,76.79
2022-09-27T09:55:03.442Z,76.82
2022-09-27T09:59:28.678Z,76.50
2022-09-27T10:03:32.237Z,74.12
2022-09-27T10:07:38.849Z,73.77
2022-09-27T10:11:43.317Z,71.45
2022-09-27T10:16:05.627Z,70.83
2022-09-27T10:20:29.079Z,69.86
2022-09-27T10:24:56.134Z,68.36
2022-09-27T10:29:20.040Z,68.77
2022-09-27T10:33:23.130Z,70.06
2022-09-27T10:37:34.938Z,71.59
2022-09-27T10:41:42.687Z,73.75
2022-09-27T10:45:50.540Z,75.99
2022-09-27T10:50:06.645Z,76.73
2022-09-27T10:54:28.962Z,77.74
2022-09-27T10:58:34.715Z,78.40
2022-09-27T11:02:39.729Z,77.58
2022-09-27T11:06:44.493Z,79.07
2022-09-27T11:11:07.913Z,77.93
2022-09-27T11:15:19.114Z,76.66
2022-09-27T11:19:33.374Z,74.53
2022-09-27T11:23:58.288Z,73.96
2022-09-27T11:28:18.451Z,72.80
2022-09-27T11:32:35.466Z,71.74
2022-09-27T11:37:20.075Z,69.15
2022-09-27T11:41:55.496Z,66.67
2022-09-27T11:46:35.475Z,67.21
2022-09-27T11:50:53.727Z,67.51
2022-09-27T11:55:15.510Z,68.66
2022-09-27T11:59:51.170Z,65.74
2022-09-27T12:04:05.790Z,62.83
2022-09-27T12:08:24.515Z,59.96
2022-09-27T12:12:31.830Z,61.14
2022-09-27T12:16:34.671Z,64.39
2022-09-27T12:20:38.310Z,64.55
2022-09-27T12:24:42.305Z,64.49
2022-09-27T12:29:23.119Z,63.62
2022-09-27T12:34:10.166Z,64.94
2022-09-27T12:38:14.999Z,63.14
2022-09-27T12:47:23.785Z,60.81
2022-09-27T12:51:35.902Z,59.90
2022-09-27T12:56:15.016Z,59.65
2022-09-27T13:00:22.548Z,59.23
2022-09-27T13:04:58.377Z,57.66
2022-09-27T13:09:12.767Z,57.40
2022-09-27T13:13:21.224Z,58.02
2022-09-27T13:17:42.227Z,58.82
2022-09-27T13:21:51.273Z,59.86
2022-09-27T13:26:24.152Z,60.04
2022-09-27T13:30:31.457Z,60.68
2022-09-27T13:34:43.366Z,60.71
2022-09-27T13:39:06.236Z,59.09
2022-09-27T13:43:43.830Z,59.05
2022-09-27T13:47:59.361Z,59.67
2022-09-27T13:52:20.584Z,60.12
2022-09-27T13:56:48.169Z,60.59
2022-09-27T14:00:55.969Z,62.41
2022-09-27T14:05:02.041Z,62.58
2022-09-27T14:09:07.879Z,61.58
2022-09-27T14:13:20.232Z,61.03
2022-09-27T14:17:33.044Z,60.47
2022-09-27T14:21:39.976Z,62.16
2022-09-27T14:26:28.173Z,61.03
2022-09-27T14:30:30.788Z,61.40
2022-09-27T14:34:46.249Z,60.36
2022-09-27T14:38:48.914Z,59.79
2022-09-27T14:43:03.994Z,58.58
2022-09-27T14:47:23.646Z,58.79
2022-09-27T14:51:31.439Z,59.08
2022-09-27T14:55:34.898Z,60.22
2022-09-27T14:59:37.830Z,59.58
2022-09-27T15:03:44.207Z,60.18
2022-09-27T15:07:48.119Z,61.02
2022-09-27T15:11:55.399Z,61.26
2022-09-27T15:15:57.488Z,63.72
2022-09-27T15:20:18.759Z,64.86
2022-09-27T15:24:36.458Z,65.82
2022-09-27T15:28:42.559Z,66.86
2022-09-27T15:32:50.671Z,67.52
2022-09-27T15:36:56.055Z,68.42
2022-09-27T15:41:32.132Z,70.30
2022-09-27T15:45:36.397Z,72.40
2022-09-27T15:49:38.886Z,70.34
2022-09-27T15:53:42.440Z,70.76
2022-09-27T15:57:47.646Z,68.52
2022-09-27T16:01:52.807Z,67.84
2022-09-27T16:05:59.776Z,66.64
2022-09-27T16:10:01.895Z,65.73
2022-09-27T16:14:03.901Z,65.68
2022-09-27T16:18:06.105Z,65.61
2022-09-27T16:22:08.842Z,65.54
2022-09-27T16:26:10.880Z,66.25
2022-09-27T16:30:13.383Z,68.75
2022-09-27T16:34:15.522Z,70.80
2022-09-27T16:38:17.760Z,73.64
2022-09-27T16:42:19.753Z,73.76
2022-09-27T16:46:21.839Z,75.87
2022-09-27T16:50:42.576Z,77.96
2022-09-27T16:54:45.012Z,78.53
2022-09-27T16:58:47.888Z,79.33
2022-09-27T17:02:49.878Z,81.46
2022-09-27T17:06:51.978Z,83.14
2022-09-27T17:10:54.213Z,84.23
2022-09-27T17:14:56.544Z,85.57
2022-09-27T17:18:58.648Z,86.15
2022-09-27T17:23:00.626Z,86.88
2022-09-27T17:27:03.211Z,87.32
2022-09-27T17:31:10.726Z,88.47
2022-09-27T17:35:12.808Z,89.69
2022-09-27T17:39:17.068Z,89.89
2022-09-27T17:43:19.045Z,90.21
2022-09-27T17:47:39.254Z,90.99
2022-09-27T17:51:42.431Z,91.32
2022-09-27T17:55:45.374Z,92.46
2022-09-27T17:59:47.408Z,92.51
2022-09-27T18:03:53.032Z,93.73
2022-09-27T18:07:55.057Z,94.15
2022-09-27T18:11:57.060Z,94.90
2022-09-27T18:15:59.169Z,95.08
2022-09-27T18:20:02.313Z,95.38
2022-09-27T18:24:06.255Z,95.04
2022-09-27T18:28:09.934Z,95.53
2022-09-27T18:32:11.929Z,96.09
2022-09-27T18:36:17.211Z,95.72
2022-09-27T18:40:37.990Z,95.50
2022-09-27T18:44:41.260Z,96.02
2022-09-27T18:48:43.244Z,96.00
2022-09-27T18:52:45.292Z,96.39
2022-09-27T18:56:49.608Z,95.77
2022-09-27T19:00:52.729Z,95.90
2022-09-27T19:04:54.730Z,96.37
2022-09-27T19:08:58.643Z,97.09
2022-09-27T19:13:01.164Z,97.36
2022-09-27T19:17:03.151Z,98.40
2022-09-27T19:21:11.491Z,99.04
2022-09-27T19:25:13.621Z,99.33
2022-09-27T19:29:15.821Z,99.43
2022-09-27T19:33:18.032Z,99.04
2022-09-27T19:37:20.007Z,99.10
2022-09-27T19:41:22.007Z,99.14
2022-09-27T19:45:24.133Z,99.45
2022-09-27T19:49:26.730Z,99.08
2022-09-27T19:53:32.166Z,98.86
2022-09-27T19:57:34.362Z,99.80
2022-09-27T20:01:36.605Z,99.86
2022-09-27T20:05:38.729Z,99.74
2022-09-27T20:09:42.009Z,99.41
2022-09-27T20:13:44.639Z,99.63
2022-09-27T20:17:47.061Z,99.78
2022-09-27T20:21:49.130Z,99.95
2022-09-27T20:25:51.134Z,99.09
2022-09-27T20:29:53.174Z,99.00
2022-09-27T20:33:55.997Z,98.85
2022-09-27T20:37:58.082Z,98.71
2022-09-27T20:42:00.068Z,99.13
2022-09-27T20:46:11.678Z,98.77
2022-09-27T20:50:14.114Z,98.57
2022-09-27T20:54:16.180Z,97.65
2022-09-27T20:58:18.181Z,95.93
2022-09-27T21:02:20.312Z,94.80
2022-09-27T21:06:27.086Z,93.63
2022-09-27T21:10:29.108Z,92.93
2022-09-27T21:14:31.082Z,92.71
2022-09-27T21:18:33.303Z,92.47
2022-09-27T21:22:35.289Z,92.63
2022-09-27T21:26:37.364Z,92.89
2022-09-27T21:30:39.358Z,93.16
2022-09-27T21:34:41.339Z,93.49
2022-09-27T21:38:43.336Z,93.48
2022-09-27T21:42:45.315Z,93.60
2022-09-27T21:46:47.466Z,93.70
2022-09-27T21:50:49.640Z,93.77
2022-09-27T21:54:51.619Z,93.78
2022-09-27T21:58:53.745Z,94.02
2022-09-27T22:02:58.725Z,95.96
2022-09-27T22:07:00.723Z,95.52
2022-09-27T22:11:02.729Z,95.96
2022-09-27T22:15:05.668Z,96.61
2022-09-27T22:19:08.073Z,98.57
2022-09-27T22:23:10.064Z,99.42
2022-09-27T22:27:12.075Z,98.74
2022-09-27T22:31:15.972Z,99.17
2022-09-27T22:35:18.054Z,100.00
2022-09-27T22:39:20.028Z,100.00
2022-09-27T22:43:22.504Z,100.00
2022-09-27T22:47:24.540Z,100.00
2022-09-27T22:51:26.543Z,100.00
2022-09-27T22:55:28.591Z,100.00
2022-09-27T22:59:30.559Z,100.00
2022-09-27T23:03:32.736Z,100.00
2022-09-27T23:07:34.758Z,100.00
2022-09-27T23:11:37.929Z,100.00
2022-09-27T23:15:40.078Z,100.00
2022-09-27T23:19:42.340Z,100.00
2022-09-27T23:23:46.013Z,100.00
2022-09-27T23:27:52.734Z,100.00
2022-09-27T23:31:54.853Z,100.00
2022-09-27T23:35:57.004Z,100.00
2022-09-27T23:39:59.009Z,100.00
2022-09-27T23:44:01.190Z,100.00
2022-09-27T23:48:04.001Z,100.00
2022-09-27T23:52:06.299Z,100.00
2022-09-27T23:56:16.510Z,100.00
